sensor_id;sensor_type;location;lat;lon;timestamp;pressure;altitude;pressure_sealevel;temperature;humidity
61506;BME280;47366;51.916;4.574;2022-11-20T00:00:56;101534.00;;;0.11;76.94
61506;BME280;47366;51.916;4.574;2022-11-20T00:03:22;101535.75;;;0.12;76.58
61506;BME280;47366;51.916;4.574;2022-11-20T00:05:47;101526.94;;;0.07;76.93
61506;BME280;47366;51.916;4.574;2022-11-20T00:08:13;101532.28;;;0.02;76.87
61506;BME280;47366;51.916;4.574;2022-11-20T00:10:39;101536.75;;;0.03;76.92
61506;BME280;47366;51.916;4.574;2022-11-20T00:13:05;101534.06;;;0.03;77.12
61506;BME280;47366;51.916;4.574;2022-11-20T00:15:31;101534.03;;;0.05;77.26
61506;BME280;47366;51.916;4.574;2022-11-20T00:17:56;101526.97;;;0.02;77.44
61506;BME280;47366;51.916;4.574;2022-11-20T00:20:22;101527.00;;;0.01;77.18
61506;BME280;47366;51.916;4.574;2022-11-20T00:22:47;101517.22;;;-0.01;77.58
61506;BME280;47366;51.916;4.574;2022-11-20T00:25:12;101517.25;;;-0.04;77.04
61506;BME280;47366;51.916;4.574;2022-11-20T00:27:39;101516.41;;;-0.10;77.53
61506;BME280;47366;51.916;4.574;2022-11-20T00:30:05;101516.41;;;-0.09;77.50
61506;BME280;47366;51.916;4.574;2022-11-20T00:32:31;101523.53;;;-0.14;77.40
61506;BME280;47366;51.916;4.574;2022-11-20T00:34:56;101527.97;;;-0.17;77.43
61506;BME280;47366;51.916;4.574;2022-11-20T00:37:22;101530.66;;;-0.16;78.00
61506;BME280;47366;51.916;4.574;2022-11-20T00:39:47;101520.91;;;-0.22;78.09
61506;BME280;47366;51.916;4.574;2022-11-20T00:42:12;101517.38;;;-0.20;78.26
61506;BME280;47366;51.916;4.574;2022-11-20T00:44:38;101518.25;;;-0.20;78.25
61506;BME280;47366;51.916;4.574;2022-11-20T00:47:03;101511.16;;;-0.21;78.17
61506;BME280;47366;51.916;4.574;2022-11-20T00:49:28;101505.81;;;-0.18;78.45
61506;BME280;47366;51.916;4.574;2022-11-20T00:51:54;101493.41;;;-0.22;78.45
61506;BME280;47366;51.916;4.574;2022-11-20T00:54:19;101499.59;;;-0.20;77.92
61506;BME280;47366;51.916;4.574;2022-11-20T00:56:44;101506.72;;;-0.22;78.28
61506;BME280;47366;51.916;4.574;2022-11-20T00:59:10;101504.09;;;-0.25;78.03
61506;BME280;47366;51.916;4.574;2022-11-20T01:01:36;101512.06;;;-0.27;78.05
61506;BME280;47366;51.916;4.574;2022-11-20T01:04:02;101520.94;;;-0.25;77.95
61506;BME280;47366;51.916;4.574;2022-11-20T01:06:30;101515.59;;;-0.23;78.15
61506;BME280;47366;51.916;4.574;2022-11-20T01:08:58;101521.84;;;-0.27;78.29
61506;BME280;47366;51.916;4.574;2022-11-20T01:11:27;101520.09;;;-0.28;78.28
61506;BME280;47366;51.916;4.574;2022-11-20T01:13:53;101525.41;;;-0.30;78.27
61506;BME280;47366;51.916;4.574;2022-11-20T01:18:50;101513.94;;;-0.41;78.56
61506;BME280;47366;51.916;4.574;2022-11-20T01:21:19;101514.81;;;-0.37;79.16
61506;BME280;47366;51.916;4.574;2022-11-20T01:23:45;101504.16;;;-0.39;78.89
61506;BME280;47366;51.916;4.574;2022-11-20T01:26:16;101505.94;;;-0.38;78.66
61506;BME280;47366;51.916;4.574;2022-11-20T01:28:42;101494.38;;;-0.38;78.93
61506;BME280;47366;51.916;4.574;2022-11-20T01:33:37;101501.53;;;-0.42;78.69
61506;BME280;47366;51.916;4.574;2022-11-20T01:36:05;101510.41;;;-0.45;78.64
61506;BME280;47366;51.916;4.574;2022-11-20T01:38:31;101511.25;;;-0.39;78.64
61506;BME280;47366;51.916;4.574;2022-11-20T01:40:56;101506.84;;;-0.44;78.80
61506;BME280;47366;51.916;4.574;2022-11-20T01:43:22;101506.00;;;-0.47;79.01
61506;BME280;47366;51.916;4.574;2022-11-20T01:48:48;101499.81;;;-0.52;78.86
61506;BME280;47366;51.916;4.574;2022-11-20T01:51:23;101495.41;;;-0.55;79.02
61506;BME280;47366;51.916;4.574;2022-11-20T01:53:50;101494.53;;;-0.58;79.44
61506;BME280;47366;51.916;4.574;2022-11-20T01:56:17;101485.66;;;-0.59;79.48
61506;BME280;47366;51.916;4.574;2022-11-20T01:58:48;101495.41;;;-0.61;79.61
61506;BME280;47366;51.916;4.574;2022-11-20T02:01:14;101491.91;;;-0.66;79.68
61506;BME280;47366;51.916;4.574;2022-11-20T02:03:40;101495.47;;;-0.69;79.42
61506;BME280;47366;51.916;4.574;2022-11-20T02:06:11;101498.13;;;-0.69;79.66
61506;BME280;47366;51.916;4.574;2022-11-20T02:08:39;101499.88;;;-0.69;79.59
61506;BME280;47366;51.916;4.574;2022-11-20T02:11:04;101499.03;;;-0.71;80.11
61506;BME280;47366;51.916;4.574;2022-11-20T02:13:30;101496.38;;;-0.73;79.62
61506;BME280;47366;51.916;4.574;2022-11-20T02:16:29;101491.94;;;-0.74;79.92
61506;BME280;47366;51.916;4.574;2022-11-20T02:18:57;101499.00;;;-0.70;80.16
61506;BME280;47366;51.916;4.574;2022-11-20T02:21:28;101493.69;;;-0.70;80.21
61506;BME280;47366;51.916;4.574;2022-11-20T02:24:04;101488.38;;;-0.71;79.88
61506;BME280;47366;51.916;4.574;2022-11-20T02:26:31;101483.94;;;-0.71;79.96
61506;BME280;47366;51.916;4.574;2022-11-20T02:28:58;101489.25;;;-0.72;80.04
61506;BME280;47366;51.916;4.574;2022-11-20T02:31:26;101484.84;;;-0.76;80.32
61506;BME280;47366;51.916;4.574;2022-11-20T02:33:56;101481.31;;;-0.75;80.36
61506;BME280;47366;51.916;4.574;2022-11-20T02:36:22;101482.19;;;-0.75;80.38
61506;BME280;47366;51.916;4.574;2022-11-20T02:38:49;101487.50;;;-0.73;80.30
61506;BME280;47366;51.916;4.574;2022-11-20T02:41:15;101480.41;;;-0.74;80.58
61506;BME280;47366;51.916;4.574;2022-11-20T02:43:40;101490.16;;;-0.76;80.63
61506;BME280;47366;51.916;4.574;2022-11-20T02:46:07;101485.75;;;-0.77;80.46
61506;BME280;47366;51.916;4.574;2022-11-20T02:48:32;101469.78;;;-0.76;80.90
61506;BME280;47366;51.916;4.574;2022-11-20T02:50:57;101458.25;;;-0.76;80.88
61506;BME280;47366;51.916;4.574;2022-11-20T02:53:23;101466.22;;;-0.73;80.59
61506;BME280;47366;51.916;4.574;2022-11-20T02:55:48;101460.03;;;-0.74;80.63
61506;BME280;47366;51.916;4.574;2022-11-20T02:58:13;101457.34;;;-0.71;80.77
61506;BME280;47366;51.916;4.574;2022-11-20T03:00:38;101461.75;;;-0.70;80.53
61506;BME280;47366;51.916;4.574;2022-11-20T03:03:04;101456.47;;;-0.73;80.70
61506;BME280;47366;51.916;4.574;2022-11-20T03:05:29;101450.25;;;-0.75;80.64
61506;BME280;47366;51.916;4.574;2022-11-20T03:07:54;101449.38;;;-0.77;80.66
61506;BME280;47366;51.916;4.574;2022-11-20T03:10:20;101452.06;;;-0.74;80.70
61506;BME280;47366;51.916;4.574;2022-11-20T03:12:45;101437.84;;;-0.74;80.53
61506;BME280;47366;51.916;4.574;2022-11-20T03:15:10;101433.44;;;-0.75;80.75
61506;BME280;47366;51.916;4.574;2022-11-20T03:17:36;101429.88;;;-0.77;80.85
61506;BME280;47366;51.916;4.574;2022-11-20T03:20:01;101424.59;;;-0.83;80.88
61506;BME280;47366;51.916;4.574;2022-11-20T03:22:29;101435.22;;;-0.82;80.64
61506;BME280;47366;51.916;4.574;2022-11-20T03:24:55;101435.22;;;-0.82;80.96
61506;BME280;47366;51.916;4.574;2022-11-20T03:27:20;101439.69;;;-0.81;81.07
61506;BME280;47366;51.916;4.574;2022-11-20T03:29:45;101428.13;;;-0.81;81.01
61506;BME280;47366;51.916;4.574;2022-11-20T03:32:11;101419.28;;;-0.80;80.85
61506;BME280;47366;51.916;4.574;2022-11-20T03:34:36;101427.25;;;-0.82;80.85
61506;BME280;47366;51.916;4.574;2022-11-20T03:37:01;101419.28;;;-0.83;81.10
61506;BME280;47366;51.916;4.574;2022-11-20T03:39:26;101425.50;;;-0.83;80.73
61506;BME280;47366;51.916;4.574;2022-11-20T03:41:52;101409.53;;;-0.86;80.89
61506;BME280;47366;51.916;4.574;2022-11-20T03:44:17;101416.63;;;-0.87;80.85
61506;BME280;47366;51.916;4.574;2022-11-20T03:46:45;101421.97;;;-0.87;81.15
61506;BME280;47366;51.916;4.574;2022-11-20T03:49:11;101422.84;;;-0.89;80.79
61506;BME280;47366;51.916;4.574;2022-11-20T03:51:36;101415.78;;;-0.92;80.91
61506;BME280;47366;51.916;4.574;2022-11-20T03:54:04;101409.63;;;-0.95;81.07
61506;BME280;47366;51.916;4.574;2022-11-20T03:56:32;101415.81;;;-0.96;81.08
61506;BME280;47366;51.916;4.574;2022-11-20T03:58:58;101411.38;;;-0.96;81.11
61506;BME280;47366;51.916;4.574;2022-11-20T04:01:27;101401.63;;;-0.98;81.55
61506;BME280;47366;51.916;4.574;2022-11-20T04:03:54;101396.31;;;-0.97;81.35
61506;BME280;47366;51.916;4.574;2022-11-20T04:06:22;101380.38;;;-0.95;81.55
61506;BME280;47366;51.916;4.574;2022-11-20T04:08:48;101386.56;;;-0.98;81.72
61506;BME280;47366;51.916;4.574;2022-11-20T04:11:18;101385.69;;;-0.95;81.41
61506;BME280;47366;51.916;4.574;2022-11-20T04:13:50;101381.22;;;-0.93;81.60
61506;BME280;47366;51.916;4.574;2022-11-20T04:16:16;101384.78;;;-0.96;81.36
61506;BME280;47366;51.916;4.574;2022-11-20T04:18:41;101381.25;;;-0.96;81.34
61506;BME280;47366;51.916;4.574;2022-11-20T04:21:08;101373.28;;;-0.95;81.54
61506;BME280;47366;51.916;4.574;2022-11-20T04:23:33;101367.94;;;-0.96;81.25
61506;BME280;47366;51.916;4.574;2022-11-20T04:26:08;101368.81;;;-0.96;81.41
61506;BME280;47366;51.916;4.574;2022-11-20T04:28:33;101368.84;;;-0.97;81.45
61506;BME280;47366;51.916;4.574;2022-11-20T04:31:07;101371.50;;;-0.97;81.30
61506;BME280;47366;51.916;4.574;2022-11-20T04:33:34;101371.50;;;-0.99;81.62
61506;BME280;47366;51.916;4.574;2022-11-20T04:36:05;101378.59;;;-0.99;81.61
61506;BME280;47366;51.916;4.574;2022-11-20T04:38:31;101382.16;;;-0.99;81.55
61506;BME280;47366;51.916;4.574;2022-11-20T04:40:58;101374.16;;;-0.99;81.52
61506;BME280;47366;51.916;4.574;2022-11-20T04:43:23;101373.31;;;-1.02;81.46
61506;BME280;47366;51.916;4.574;2022-11-20T04:45:56;101369.75;;;-1.03;81.19
61506;BME280;47366;51.916;4.574;2022-11-20T04:48:22;101373.34;;;-1.07;81.60
61506;BME280;47366;51.916;4.574;2022-11-20T04:50:48;101382.16;;;-1.05;81.58
61506;BME280;47366;51.916;4.574;2022-11-20T04:53:14;101380.38;;;-1.01;81.82
61506;BME280;47366;51.916;4.574;2022-11-20T04:55:39;101373.31;;;-1.04;81.72
61506;BME280;47366;51.916;4.574;2022-11-20T04:58:05;101362.69;;;-1.05;81.97
61506;BME280;47366;51.916;4.574;2022-11-20T05:00:30;101363.59;;;-1.07;81.64
61506;BME280;47366;51.916;4.574;2022-11-20T05:02:56;101364.47;;;-1.08;81.80
61506;BME280;47366;51.916;4.574;2022-11-20T05:05:21;101366.25;;;-1.07;81.70
61506;BME280;47366;51.916;4.574;2022-11-20T05:07:46;101361.81;;;-1.08;81.77
61506;BME280;47366;51.916;4.574;2022-11-20T05:10:12;101357.38;;;-1.10;81.75
61506;BME280;47366;51.916;4.574;2022-11-20T05:12:37;101360.97;;;-1.10;81.83
61506;BME280;47366;51.916;4.574;2022-11-20T05:15:03;101365.38;;;-1.07;81.98
61506;BME280;47366;51.916;4.574;2022-11-20T05:17:28;101371.56;;;-1.08;81.79
61506;BME280;47366;51.916;4.574;2022-11-20T05:19:53;101373.34;;;-1.09;81.94
61506;BME280;47366;51.916;4.574;2022-11-20T05:22:19;101377.78;;;-1.12;81.99
61506;BME280;47366;51.916;4.574;2022-11-20T05:24:44;101383.97;;;-1.07;81.69
61506;BME280;47366;51.916;4.574;2022-11-20T05:27:09;101375.16;;;-1.14;82.13
61506;BME280;47366;51.916;4.574;2022-11-20T05:29:34;101374.22;;;-1.13;82.16
61506;BME280;47366;51.916;4.574;2022-11-20T05:32:00;101368.94;;;-1.14;82.16
61506;BME280;47366;51.916;4.574;2022-11-20T05:34:25;101371.56;;;-1.13;82.50
61506;BME280;47366;51.916;4.574;2022-11-20T05:36:50;101369.78;;;-1.12;82.08
61506;BME280;47366;51.916;4.574;2022-11-20T05:39:16;101368.03;;;-1.13;82.13
61506;BME280;47366;51.916;4.574;2022-11-20T05:41:41;101360.97;;;-1.16;82.31
61506;BME280;47366;51.916;4.574;2022-11-20T05:44:06;101364.53;;;-1.17;82.43
61506;BME280;47366;51.916;4.574;2022-11-20T05:46:32;101360.09;;;-1.16;82.40
61506;BME280;47366;51.916;4.574;2022-11-20T05:49:00;101351.25;;;-1.18;82.55
61506;BME280;47366;51.916;4.574;2022-11-20T05:51:26;101349.47;;;-1.18;82.78
61506;BME280;47366;51.916;4.574;2022-11-20T05:53:52;101341.50;;;-1.16;82.94
61506;BME280;47366;51.916;4.574;2022-11-20T05:56:20;101346.78;;;-1.13;82.89
61506;BME280;47366;51.916;4.574;2022-11-20T05:58:46;101347.66;;;-1.11;82.93
61506;BME280;47366;51.916;4.574;2022-11-20T06:01:19;101344.09;;;-1.09;82.80
61506;BME280;47366;51.916;4.574;2022-11-20T06:03:45;101344.09;;;-1.09;82.89
61506;BME280;47366;51.916;4.574;2022-11-20T06:06:13;101334.31;;;-1.05;82.79
61506;BME280;47366;51.916;4.574;2022-11-20T06:08:38;101325.50;;;-1.09;82.88
61506;BME280;47366;51.916;4.574;2022-11-20T06:11:08;101326.41;;;-1.10;83.15
61506;BME280;47366;51.916;4.574;2022-11-20T06:13:34;101320.16;;;-1.10;83.32
61506;BME280;47366;51.916;4.574;2022-11-20T06:16:00;101315.75;;;-1.10;83.37
61506;BME280;47366;51.916;4.574;2022-11-20T06:18:26;101308.66;;;-1.12;83.14
61506;BME280;47366;51.916;4.574;2022-11-20T06:21:00;101308.66;;;-1.11;83.48
61506;BME280;47366;51.916;4.574;2022-11-20T06:23:28;101321.94;;;-1.12;83.33
61506;BME280;47366;51.916;4.574;2022-11-20T06:25:53;101320.22;;;-1.12;83.15
61506;BME280;47366;51.916;4.574;2022-11-20T06:28:19;101314.84;;;-1.10;83.42
61506;BME280;47366;51.916;4.574;2022-11-20T06:30:44;101322.81;;;-1.05;83.41
61506;BME280;47366;51.916;4.574;2022-11-20T06:33:10;101313.09;;;-1.10;83.05
61506;BME280;47366;51.916;4.574;2022-11-20T06:35:35;101313.09;;;-1.11;83.49
61506;BME280;47366;51.916;4.574;2022-11-20T06:38:00;101316.63;;;-1.11;83.60
61506;BME280;47366;51.916;4.574;2022-11-20T06:40:25;101298.91;;;-1.10;83.67
61506;BME280;47366;51.916;4.574;2022-11-20T06:42:53;101309.53;;;-1.10;83.76
61506;BME280;47366;51.916;4.574;2022-11-20T06:45:18;101313.97;;;-1.09;83.51
61506;BME280;47366;51.916;4.574;2022-11-20T06:47:44;101314.88;;;-1.07;83.77
61506;BME280;47366;51.916;4.574;2022-11-20T06:50:09;101324.56;;;-1.01;83.82
61506;BME280;47366;51.916;4.574;2022-11-20T06:52:34;101311.31;;;-1.04;84.05
61506;BME280;47366;51.916;4.574;2022-11-20T06:55:00;101301.53;;;-1.05;83.86
61506;BME280;47366;51.916;4.574;2022-11-20T06:57:25;101297.09;;;-1.03;83.63
61506;BME280;47366;51.916;4.574;2022-11-20T06:59:50;101311.28;;;-1.00;84.09
61506;BME280;47366;51.916;4.574;2022-11-20T07:02:15;101294.41;;;-1.00;84.05
61506;BME280;47366;51.916;4.574;2022-11-20T07:04:41;101301.47;;;-0.96;84.20
61506;BME280;47366;51.916;4.574;2022-11-20T07:07:06;101295.22;;;-0.91;84.13
61506;BME280;47366;51.916;4.574;2022-11-20T07:09:32;101295.22;;;-0.88;84.32
61506;BME280;47366;51.916;4.574;2022-11-20T07:11:58;101304.94;;;-0.82;84.11
61506;BME280;47366;51.916;4.574;2022-11-20T07:14:23;101303.13;;;-0.81;84.27
61506;BME280;47366;51.916;4.574;2022-11-20T07:16:49;101307.56;;;-0.79;84.42
61506;BME280;47366;51.916;4.574;2022-11-20T07:19:14;101308.47;;;-0.81;84.21
61506;BME280;47366;51.916;4.574;2022-11-20T07:21:40;101301.31;;;-0.76;84.31
61506;BME280;47366;51.916;4.574;2022-11-20T07:24:05;101298.69;;;-0.79;84.30
61506;BME280;47366;51.916;4.574;2022-11-20T07:26:30;101294.31;;;-0.85;84.25
61506;BME280;47366;51.916;4.574;2022-11-20T07:28:56;101295.19;;;-0.84;84.46
61506;BME280;47366;51.916;4.574;2022-11-20T07:31:21;101309.34;;;-0.78;84.65
61506;BME280;47366;51.916;4.574;2022-11-20T07:33:47;101310.19;;;-0.73;84.49
61506;BME280;47366;51.916;4.574;2022-11-20T07:36:12;101297.75;;;-0.71;84.64
61506;BME280;47366;51.916;4.574;2022-11-20T07:38:37;101303.91;;;-0.67;84.79
61506;BME280;47366;51.916;4.574;2022-11-20T07:41:03;101310.09;;;-0.63;84.93
61506;BME280;47366;51.916;4.574;2022-11-20T07:43:29;101306.56;;;-0.66;85.09
61506;BME280;47366;51.916;4.574;2022-11-20T07:45:57;101309.22;;;-0.67;85.00
61506;BME280;47366;51.916;4.574;2022-11-20T07:48:24;101318.09;;;-0.65;84.73
61506;BME280;47366;51.916;4.574;2022-11-20T07:50:49;101322.50;;;-0.62;85.03
61506;BME280;47366;51.916;4.574;2022-11-20T07:53:14;101303.88;;;-0.62;85.21
61506;BME280;47366;51.916;4.574;2022-11-20T07:55:45;101314.47;;;-0.55;85.14
61506;BME280;47366;51.916;4.574;2022-11-20T07:58:11;101307.34;;;-0.51;85.21
61506;BME280;47366;51.916;4.574;2022-11-20T08:00:36;101307.31;;;-0.47;85.18
61506;BME280;47366;51.916;4.574;2022-11-20T08:03:05;101311.69;;;-0.41;84.97
61506;BME280;47366;51.916;4.574;2022-11-20T08:05:30;101296.59;;;-0.39;85.02
61506;BME280;47366;51.916;4.574;2022-11-20T08:07:55;101285.94;;;-0.37;85.17
61506;BME280;47366;51.916;4.574;2022-11-20T08:10:21;101289.50;;;-0.41;85.69
61506;BME280;47366;51.916;4.574;2022-11-20T08:12:48;101277.09;;;-0.39;85.75
61506;BME280;47366;51.916;4.574;2022-11-20T08:15:33;101282.38;;;-0.35;85.65
61506;BME280;47366;51.916;4.574;2022-11-20T08:18:00;101283.19;;;-0.31;85.89
61506;BME280;47366;51.916;4.574;2022-11-20T08:20:25;101291.13;;;-0.25;85.56
61506;BME280;47366;51.916;4.574;2022-11-20T08:22:51;101276.91;;;-0.24;85.69
61506;BME280;47366;51.916;4.574;2022-11-20T08:25:16;101283.09;;;-0.19;85.68
61506;BME280;47366;51.916;4.574;2022-11-20T08:27:41;101284.81;;;-0.15;85.79
61506;BME280;47366;51.916;4.574;2022-11-20T08:30:07;101285.63;;;-0.10;85.56
61506;BME280;47366;51.916;4.574;2022-11-20T08:32:33;101291.88;;;-0.09;85.71
61506;BME280;47366;51.916;4.574;2022-11-20T08:35:00;101287.38;;;-0.04;85.40
61506;BME280;47366;51.916;4.574;2022-11-20T08:37:26;101290.91;;;-0.04;85.49
61506;BME280;47366;51.916;4.574;2022-11-20T08:39:51;101287.28;;;0.02;85.23
61506;BME280;47366;51.916;4.574;2022-11-20T08:42:18;101286.38;;;0.06;85.38
61506;BME280;47366;51.916;4.574;2022-11-20T08:44:43;101286.31;;;0.11;85.93
61506;BME280;47366;51.916;4.574;2022-11-20T08:47:09;101286.31;;;0.11;85.82
61506;BME280;47366;51.916;4.574;2022-11-20T08:49:34;101296.03;;;0.13;86.33
61506;BME280;47366;51.916;4.574;2022-11-20T08:51:59;101284.50;;;0.14;86.03
61506;BME280;47366;51.916;4.574;2022-11-20T08:54:24;101286.22;;;0.20;85.96
61506;BME280;47366;51.916;4.574;2022-11-20T08:56:50;101279.09;;;0.19;86.19
61506;BME280;47366;51.916;4.574;2022-11-20T08:59:15;101277.34;;;0.19;85.79
61506;BME280;47366;51.916;4.574;2022-11-20T09:01:40;101271.94;;;0.26;86.11
61506;BME280;47366;51.916;4.574;2022-11-20T09:04:06;101262.16;;;0.26;86.29
61506;BME280;47366;51.916;4.574;2022-11-20T09:06:31;101258.59;;;0.27;86.16
61506;BME280;47366;51.916;4.574;2022-11-20T09:08:56;101260.34;;;0.31;86.11
61506;BME280;47366;51.916;4.574;2022-11-20T09:11:22;101255.84;;;0.33;86.03
61506;BME280;47366;51.916;4.574;2022-11-20T09:13:47;101264.63;;;0.40;86.67
61506;BME280;47366;51.916;4.574;2022-11-20T09:16:13;101254.84;;;0.44;86.29
61506;BME280;47366;51.916;4.574;2022-11-20T09:18:38;101257.41;;;0.50;85.55
61506;BME280;47366;51.916;4.574;2022-11-20T09:21:10;101241.41;;;0.50;85.90
61506;BME280;47366;51.916;4.574;2022-11-20T09:23:36;101243.16;;;0.54;86.30
61506;BME280;47366;51.916;4.574;2022-11-20T09:26:04;101254.63;;;0.59;86.28
61506;BME280;47366;51.916;4.574;2022-11-20T09:28:30;101243.09;;;0.57;86.57
61506;BME280;47366;51.916;4.574;2022-11-20T09:30:55;101235.09;;;0.57;86.54
61506;BME280;47366;51.916;4.574;2022-11-20T09:33:20;101237.75;;;0.60;86.51
61506;BME280;47366;51.916;4.574;2022-11-20T09:35:46;101219.03;;;0.63;86.57
61506;BME280;47366;51.916;4.574;2022-11-20T09:38:11;101213.66;;;0.66;86.13
61506;BME280;47366;51.916;4.574;2022-11-20T09:40:40;101206.44;;;0.71;86.24
61506;BME280;47366;51.916;4.574;2022-11-20T09:51:18;101189.38;;;0.84;86.46
61506;BME280;47366;51.916;4.574;2022-11-20T09:54:06;101195.53;;;0.88;86.57
61506;BME280;47366;51.916;4.574;2022-11-20T09:56:39;101187.53;;;0.88;87.06
61506;BME280;47366;51.916;4.574;2022-11-20T09:59:10;101183.97;;;0.88;86.83
61506;BME280;47366;51.916;4.574;2022-11-20T10:01:38;101181.31;;;0.88;87.18
61506;BME280;47366;51.916;4.574;2022-11-20T10:04:16;101175.03;;;0.92;86.76
61506;BME280;47366;51.916;4.574;2022-11-20T10:17:30;101142.03;;;0.97;87.67
61506;BME280;47366;51.916;4.574;2022-11-20T10:22:54;101130.50;;;0.97;88.60
61506;BME280;47366;51.916;4.574;2022-11-20T10:28:11;101116.16;;;1.02;89.09
61506;BME280;47366;51.916;4.574;2022-11-20T10:30:44;101110.81;;;1.04;88.73
61506;BME280;47366;51.916;4.574;2022-11-20T10:33:17;101111.59;;;1.09;88.48
61506;BME280;47366;51.916;4.574;2022-11-20T10:38:34;101090.25;;;1.09;89.76
61506;BME280;47366;51.916;4.574;2022-11-20T10:41:02;101093.75;;;1.13;89.78
61506;BME280;47366;51.916;4.574;2022-11-20T10:43:48;101093.69;;;1.17;90.13
61506;BME280;47366;51.916;4.574;2022-11-20T10:46:19;101098.03;;;1.21;89.02
61506;BME280;47366;51.916;4.574;2022-11-20T10:48:47;101093.50;;;1.26;89.07
61506;BME280;47366;51.916;4.574;2022-11-20T10:54:12;101087.09;;;1.35;88.59
61506;BME280;47366;51.916;4.574;2022-11-20T10:56:46;101079.06;;;1.38;88.69
61506;BME280;47366;51.916;4.574;2022-11-20T11:01:53;101065.44;;;1.51;89.07
61506;BME280;47366;51.916;4.574;2022-11-20T11:06:58;101047.63;;;1.53;89.49
61506;BME280;47366;51.916;4.574;2022-11-20T11:09:41;101052.88;;;1.56;89.39
61506;BME280;47366;51.916;4.574;2022-11-20T11:12:09;101041.25;;;1.60;89.97
61506;BME280;47366;51.916;4.574;2022-11-20T11:14:48;101039.28;;;1.66;90.03
61506;BME280;47366;51.916;4.574;2022-11-20T11:17:33;101033.91;;;1.69;90.51
61506;BME280;47366;51.916;4.574;2022-11-20T11:22:33;101016.97;;;1.70;90.61
61506;BME280;47366;51.916;4.574;2022-11-20T11:24:59;101015.06;;;1.76;91.52
61506;BME280;47366;51.916;4.574;2022-11-20T11:27:25;101009.59;;;1.82;90.79
61506;BME280;47366;51.916;4.574;2022-11-20T11:30:02;100999.81;;;1.81;91.84
61506;BME280;47366;51.916;4.574;2022-11-20T11:32:27;100980.06;;;1.88;91.40
61506;BME280;47366;51.916;4.574;2022-11-20T11:35:26;100967.53;;;1.91;91.77
61506;BME280;47366;51.916;4.574;2022-11-20T11:38:00;100953.19;;;1.96;91.75
61506;BME280;47366;51.916;4.574;2022-11-20T11:40:28;100921.91;;;1.99;91.41
61506;BME280;47366;51.916;4.574;2022-11-20T11:43:01;100930.56;;;2.09;92.17
61506;BME280;47366;51.916;4.574;2022-11-20T11:45:27;100915.19;;;2.19;92.44
61506;BME280;47366;51.916;4.574;2022-11-20T11:47:55;100911.44;;;2.26;91.75
61506;BME280;47366;51.916;4.574;2022-11-20T11:50:24;100916.53;;;2.35;91.53
61506;BME280;47366;51.916;4.574;2022-11-20T11:55:58;100913.72;;;2.41;91.85
61506;BME280;47366;51.916;4.574;2022-11-20T11:58:31;100935.84;;;2.46;90.96
61506;BME280;47366;51.916;4.574;2022-11-20T12:01:03;100920.66;;;2.48;91.03
61506;BME280;47366;51.916;4.574;2022-11-20T12:03:40;100917.88;;;2.51;90.40
61506;BME280;47366;51.916;4.574;2022-11-20T12:06:14;100906.25;;;2.52;89.88
61506;BME280;47366;51.916;4.574;2022-11-20T12:08:51;100915.19;;;2.53;90.86
61506;BME280;47366;51.916;4.574;2022-11-20T12:11:34;100905.34;;;2.53;90.38
61506;BME280;47366;51.916;4.574;2022-11-20T12:16:36;100891.88;;;2.58;91.02
61506;BME280;47366;51.916;4.574;2022-11-20T12:19:07;100892.72;;;2.59;91.31
61506;BME280;47366;51.916;4.574;2022-11-20T12:22:43;100894.47;;;2.60;90.89
61506;BME280;47366;51.916;4.574;2022-11-20T12:27:15;100902.38;;;2.64;91.53
61506;BME280;47366;51.916;4.574;2022-11-20T12:35:42;100888.97;;;2.66;92.13
61506;BME280;47366;51.916;4.574;2022-11-20T12:53:33;100827.50;;;2.64;93.58
61506;BME280;47366;51.916;4.574;2022-11-20T12:56:43;100816.78;;;2.64;93.59
61506;BME280;47366;51.916;4.574;2022-11-20T13:01:35;100820.41;;;2.63;93.54
61506;BME280;47366;51.916;4.574;2022-11-20T13:06:56;100805.22;;;2.64;94.19
61506;BME280;47366;51.916;4.574;2022-11-20T13:09:22;100799.88;;;2.64;93.95
61506;BME280;47366;51.916;4.574;2022-11-20T13:12:11;100806.03;;;2.67;94.34
61506;BME280;47366;51.916;4.574;2022-11-20T13:14:50;100803.41;;;2.66;94.37
61506;BME280;47366;51.916;4.574;2022-11-20T13:17:17;100797.91;;;2.70;93.84
61506;BME280;47366;51.916;4.574;2022-11-20T13:19:53;100790.84;;;2.68;93.71
61506;BME280;47366;51.916;4.574;2022-11-20T13:22:42;100783.66;;;2.70;94.20
61506;BME280;47366;51.916;4.574;2022-11-20T13:27:49;100770.44;;;2.65;94.62
61506;BME280;47366;51.916;4.574;2022-11-20T13:30:16;100773.03;;;2.67;95.10
61506;BME280;47366;51.916;4.574;2022-11-20T13:32:56;100771.19;;;2.69;95.15
61506;BME280;47366;51.916;4.574;2022-11-20T13:35:31;100769.47;;;2.68;95.55
61506;BME280;47366;51.916;4.574;2022-11-20T13:38:08;100765.84;;;2.69;95.64
61506;BME280;47366;51.916;4.574;2022-11-20T13:40:36;100756.06;;;2.69;95.14
61506;BME280;47366;51.916;4.574;2022-11-20T13:43:14;100755.03;;;2.73;94.83
61506;BME280;47366;51.916;4.574;2022-11-20T13:45:41;100747.00;;;2.73;94.56
61506;BME280;47366;51.916;4.574;2022-11-20T13:48:24;100739.81;;;2.75;95.09
61506;BME280;47366;51.916;4.574;2022-11-20T13:53:57;100717.50;;;2.76;96.63
61506;BME280;47366;51.916;4.574;2022-11-20T14:00:07;100681.84;;;2.76;97.33
61506;BME280;47366;51.916;4.574;2022-11-20T14:02:35;100679.16;;;2.76;97.96
61506;BME280;47366;51.916;4.574;2022-11-20T14:05:01;100677.31;;;2.78;97.96
61506;BME280;47366;51.916;4.574;2022-11-20T14:07:35;100674.59;;;2.80;97.44
61506;BME280;47366;51.916;4.574;2022-11-20T14:10:03;100655.88;;;2.80;97.93
61506;BME280;47366;51.916;4.574;2022-11-20T14:12:31;100654.94;;;2.81;98.41
61506;BME280;47366;51.916;4.574;2022-11-20T14:14:57;100651.28;;;2.83;97.13
61506;BME280;47366;51.916;4.574;2022-11-20T14:19:54;100638.00;;;2.82;98.57
61506;BME280;47366;51.916;4.574;2022-11-20T14:22:25;100642.28;;;2.86;98.02
61506;BME280;47366;51.916;4.574;2022-11-20T14:27:53;100641.38;;;2.87;98.89
61506;BME280;47366;51.916;4.574;2022-11-20T14:30:22;100636.91;;;2.87;98.28
61506;BME280;47366;51.916;4.574;2022-11-20T14:32:49;100629.00;;;2.84;98.36